createdAt,value
2023-02-22T00:00:44.930Z,89.73
2023-02-22T00:01:44.980Z,89.62
2023-02-22T00:02:44.928Z,89.62
2023-02-22T00:03:44.912Z,89.73
2023-02-22T00:04:44.913Z,89.83
2023-02-22T00:05:44.881Z,89.62
2023-02-22T00:06:44.847Z,89.42
2023-02-22T00:07:44.853Z,89.21
2023-02-22T00:08:44.819Z,89.00
2023-02-22T00:09:44.848Z,88.90
2023-02-22T00:10:44.817Z,88.79
2023-02-22T00:11:44.822Z,88.90
2023-02-22T00:12:44.757Z,89.11
2023-02-22T00:13:44.778Z,89.11
2023-02-22T00:14:44.778Z,89.21
2023-02-22T00:15:44.762Z,89.00
2023-02-22T00:16:44.835Z,88.69
2023-02-22T00:17:44.714Z,88.90
2023-02-22T00:18:44.676Z,89.52
2023-02-22T00:19:44.716Z,89.94
2023-02-22T00:20:44.672Z,89.94
2023-02-22T00:21:44.666Z,89.83
2023-02-22T00:22:44.644Z,89.73
2023-02-22T00:23:44.684Z,89.52
2023-02-22T00:24:44.623Z,89.31
2023-02-22T00:25:44.624Z,89.11
2023-02-22T00:26:44.592Z,89.11
2023-02-22T00:27:44.588Z,89.42
2023-02-22T00:28:44.546Z,89.52
2023-02-22T00:29:44.563Z,89.52
2023-02-22T00:30:44.547Z,89.52
2023-02-22T00:31:44.583Z,89.73
2023-02-22T00:32:44.529Z,90.14
2023-02-22T00:33:44.501Z,90.04
2023-02-22T00:34:44.504Z,90.14
2023-02-22T00:35:44.473Z,90.04
2023-02-22T00:36:44.437Z,90.08
2023-02-22T00:37:44.468Z,90.19
2023-02-22T00:38:44.429Z,90.19
2023-02-22T00:39:44.427Z,90.19
2023-02-22T00:40:44.403Z,90.19
2023-02-22T00:41:44.499Z,90.39
2023-02-22T00:42:44.387Z,90.29
2023-02-22T00:43:44.393Z,90.29
2023-02-22T00:44:44.344Z,90.08
2023-02-22T00:45:44.517Z,89.87
2023-02-22T00:46:44.339Z,89.83
2023-02-22T00:47:44.340Z,89.73
2023-02-22T00:48:44.289Z,89.73
2023-02-22T00:49:44.298Z,89.83
2023-02-22T00:50:44.259Z,89.73
2023-02-22T00:51:44.306Z,89.52
2023-02-22T00:52:44.229Z,89.04
2023-02-22T00:53:44.260Z,88.57
2023-02-22T00:54:44.213Z,88.67
2023-02-22T00:55:44.229Z,88.98
2023-02-22T00:56:44.210Z,89.34
2023-02-22T00:57:44.182Z,89.65
2023-02-22T00:58:44.158Z,89.75
2023-02-22T00:59:44.160Z,89.75
2023-02-22T01:00:44.139Z,89.75
2023-02-22T01:01:44.162Z,89.86
2023-02-22T01:02:44.129Z,89.96
2023-02-22T01:03:44.160Z,90.06
2023-02-22T01:04:44.098Z,89.71
2023-02-22T01:05:44.103Z,89.23
2023-02-22T01:06:44.043Z,89.13
2023-02-22T01:07:44.068Z,89.13
2023-02-22T01:08:44.069Z,88.85
2023-02-22T01:09:44.012Z,89.06
2023-02-22T01:10:44.041Z,89.58
2023-02-22T01:11:44.027Z,89.79
2023-02-22T01:12:43.995Z,89.89
2023-02-22T01:13:43.946Z,90.04
2023-02-22T01:14:43.972Z,90.35
2023-02-22T01:15:43.928Z,90.56
2023-02-22T01:16:44.045Z,90.66
2023-02-22T01:17:43.958Z,90.56
2023-02-22T01:18:43.925Z,90.56
2023-02-22T01:19:43.877Z,90.66
2023-02-22T01:20:43.901Z,90.72
2023-02-22T01:21:43.889Z,90.83
2023-02-22T01:22:43.900Z,90.72
2023-02-22T01:23:43.835Z,90.52
2023-02-22T01:24:43.837Z,90.52
2023-02-22T01:25:43.800Z,90.52
2023-02-22T01:26:43.837Z,90.62
2023-02-22T01:27:43.771Z,91.03
2023-02-22T01:28:43.794Z,91.45
2023-02-22T01:29:43.755Z,91.31
2023-02-22T01:30:43.911Z,91.20
2023-02-22T01:31:43.791Z,91.00
2023-02-22T01:32:43.742Z,90.69
2023-02-22T01:33:43.701Z,90.48
2023-02-22T01:34:43.703Z,90.69
2023-02-22T01:35:43.703Z,90.95
2023-02-22T01:36:43.696Z,90.95
2023-02-22T01:37:43.644Z,90.75
2023-02-22T01:38:43.683Z,90.54
2023-02-22T01:39:43.642Z,90.44
2023-02-22T01:40:43.631Z,90.33
2023-02-22T01:41:43.580Z,90.19
2023-02-22T01:42:43.597Z,90.08
2023-02-22T01:43:43.584Z,90.08
2023-02-22T01:44:43.578Z,89.98
2023-02-22T01:45:43.676Z,89.87
2023-02-22T01:46:43.594Z,89.87
2023-02-22T01:47:43.505Z,89.92
2023-02-22T01:48:43.530Z,89.92
2023-02-22T01:49:43.485Z,90.02
2023-02-22T01:50:43.538Z,90.23
2023-02-22T01:51:43.454Z,90.29
2023-02-22T01:52:43.493Z,90.19
2023-02-22T01:53:43.439Z,89.98
2023-02-22T01:54:43.454Z,89.87
2023-02-22T01:55:43.424Z,89.92
2023-02-22T01:56:43.429Z,89.87
2023-02-22T01:57:43.419Z,89.92
2023-02-22T01:58:43.395Z,89.92
2023-02-22T01:59:43.376Z,89.81
2023-02-22T02:00:43.358Z,89.67
2023-02-22T02:01:43.338Z,89.61
2023-02-22T02:02:43.360Z,89.50
2023-02-22T02:03:43.328Z,89.40
2023-02-22T02:04:43.455Z,89.40
2023-02-22T02:05:43.291Z,89.40
2023-02-22T02:06:43.282Z,89.40
2023-02-22T02:07:43.265Z,89.50
2023-02-22T02:08:43.250Z,89.61
2023-02-22T02:09:43.230Z,89.50
2023-02-22T02:10:43.227Z,89.50
2023-02-22T02:11:43.189Z,90.02
2023-02-22T02:12:43.227Z,90.23
2023-02-22T02:13:43.173Z,90.12
2023-02-22T02:14:43.184Z,90.12
2023-02-22T02:15:43.140Z,90.23
2023-02-22T02:16:43.205Z,90.23
2023-02-22T02:17:43.120Z,90.44
2023-02-22T02:18:43.149Z,90.64
2023-02-22T02:19:43.100Z,90.54
2023-02-22T02:20:43.096Z,90.44
2023-02-22T02:21:43.094Z,90.44
2023-02-22T02:22:43.087Z,90.44
2023-02-22T02:23:43.050Z,90.44
2023-02-22T02:24:43.078Z,90.44
2023-02-22T02:25:43.023Z,90.54
2023-02-22T02:26:43.032Z,90.54
2023-02-22T02:27:43.003Z,90.75
2023-02-22T02:28:43.034Z,91.10
2023-02-22T02:29:42.985Z,91.41
2023-02-22T02:30:42.974Z,91.83
2023-02-22T02:31:43.099Z,92.14
2023-02-22T02:32:43.010Z,92.35
2023-02-22T02:33:42.916Z,92.45
2023-02-22T02:34:42.954Z,92.28
2023-02-22T02:35:42.897Z,91.86
2023-02-22T02:36:42.896Z,91.55
2023-02-22T02:37:42.881Z,91.49
2023-02-22T02:38:42.940Z,91.53
2023-02-22T02:39:42.844Z,91.64
2023-02-22T02:40:42.875Z,91.74
2023-02-22T02:41:42.821Z,92.05
2023-02-22T02:42:42.834Z,92.20
2023-02-22T02:43:42.780Z,92.30
2023-02-22T02:44:42.809Z,92.30
2023-02-22T02:45:42.800Z,92.30
2023-02-22T02:46:42.784Z,92.41
2023-02-22T02:47:42.779Z,92.61
2023-02-22T02:48:42.782Z,92.82
2023-02-22T02:49:42.717Z,93.03
2023-02-22T02:50:42.732Z,93.24
2023-02-22T02:51:42.690Z,93.03
2023-02-22T02:52:42.727Z,92.93
2023-02-22T02:53:42.660Z,92.88
2023-02-22T02:54:42.670Z,92.99
2023-02-22T02:55:42.633Z,92.78
2023-02-22T02:56:42.668Z,92.68
2023-02-22T02:57:42.601Z,92.53
2023-02-22T02:58:42.626Z,92.43
2023-02-22T02:59:42.606Z,92.53
2023-02-22T03:00:42.588Z,93.05
2023-02-22T03:01:42.599Z,93.63
2023-02-22T03:02:42.568Z,94.15
2023-02-22T03:03:42.517Z,94.36
2023-02-22T03:04:42.526Z,94.36
2023-02-22T03:05:42.492Z,94.21
2023-02-22T03:06:42.542Z,94.11
2023-02-22T03:07:42.501Z,93.43
2023-02-22T03:08:42.501Z,92.11
2023-02-22T03:09:42.466Z,91.22
2023-02-22T03:10:42.452Z,90.75
2023-02-22T03:11:42.425Z,90.75
2023-02-22T03:12:42.475Z,91.00
2023-02-22T03:13:42.394Z,91.20
2023-02-22T03:14:42.445Z,91.41
2023-02-22T03:15:42.377Z,91.62
2023-02-22T03:16:42.464Z,91.93
2023-02-22T03:17:42.352Z,92.35
2023-02-22T03:18:42.353Z,92.55
2023-02-22T03:19:42.332Z,92.55
2023-02-22T03:20:42.333Z,92.35
2023-02-22T03:21:42.288Z,92.24
2023-02-22T03:22:42.295Z,92.10
2023-02-22T03:23:42.280Z,91.99
2023-02-22T03:24:42.293Z,91.89
2023-02-22T03:25:42.248Z,91.78
2023-02-22T03:26:42.297Z,91.78
2023-02-22T03:27:42.210Z,91.78
2023-02-22T03:28:42.262Z,91.47
2023-02-22T03:29:42.227Z,91.27
2023-02-22T03:30:42.218Z,91.16
2023-02-22T03:31:42.185Z,91.27
2023-02-22T03:32:42.180Z,91.27
2023-02-22T03:33:42.142Z,91.33
2023-02-22T03:34:42.203Z,91.22
2023-02-22T03:35:42.117Z,91.02
2023-02-22T03:36:42.140Z,90.70
2023-02-22T03:37:42.084Z,90.70
2023-02-22T03:38:42.102Z,90.75
2023-02-22T03:39:42.086Z,90.75
2023-02-22T03:40:42.074Z,90.85
2023-02-22T03:41:42.036Z,91.06
2023-02-22T03:42:42.044Z,91.37
2023-02-22T03:43:42.023Z,91.58
2023-02-22T03:44:42.056Z,91.53
2023-02-22T03:45:41.984Z,91.43
2023-02-22T03:46:42.026Z,91.22
2023-02-22T03:47:41.994Z,90.81
2023-02-22T03:48:41.974Z,90.60
2023-02-22T03:49:41.942Z,90.60
2023-02-22T03:50:41.965Z,90.60
2023-02-22T03:51:41.923Z,90.50
2023-02-22T03:52:41.915Z,90.60
2023-02-22T03:53:41.904Z,90.70
2023-02-22T03:54:41.910Z,90.91
2023-02-22T03:55:41.874Z,91.22
2023-02-22T03:56:41.877Z,91.28
2023-02-22T03:57:41.835Z,91.39
2023-02-22T03:58:41.852Z,91.70
2023-02-22T03:59:41.861Z,91.80
2023-02-22T04:00:41.859Z,92.01
2023-02-22T04:01:41.787Z,92.18
2023-02-22T04:02:41.926Z,92.18
2023-02-22T04:03:41.758Z,92.18
2023-02-22T04:04:41.840Z,92.18
2023-02-22T04:05:41.747Z,92.28
2023-02-22T04:06:41.766Z,92.43
2023-02-22T04:07:41.720Z,92.38
2023-02-22T04:08:41.711Z,92.11
2023-02-22T04:09:41.675Z,91.60
2023-02-22T04:10:41.696Z,91.08
2023-02-22T04:11:41.690Z,90.91
2023-02-22T04:12:41.673Z,90.91
2023-02-22T04:13:41.658Z,90.91
2023-02-22T04:14:41.649Z,90.91
2023-02-22T04:15:41.608Z,91.12
2023-02-22T04:16:41.632Z,91.12
2023-02-22T04:17:41.619Z,90.81
2023-02-22T04:18:41.623Z,90.70
2023-02-22T04:19:41.542Z,90.85
2023-02-22T04:20:41.579Z,91.02
2023-02-22T04:21:41.533Z,91.12
2023-02-22T04:22:41.548Z,90.91
2023-02-22T04:23:41.525Z,90.60
2023-02-22T04:24:41.516Z,90.19
2023-02-22T04:25:41.476Z,89.46
2023-02-22T04:26:41.479Z,88.98
2023-02-22T04:27:41.500Z,88.50
2023-02-22T04:28:41.452Z,88.43
2023-02-22T04:29:41.431Z,88.89
2023-02-22T04:30:41.442Z,89.76
2023-02-22T04:31:41.451Z,90.64
2023-02-22T04:32:41.420Z,91.37
2023-02-22T04:33:41.392Z,92.10
2023-02-22T04:34:41.381Z,92.66
2023-02-22T04:35:41.349Z,93.14
2023-02-22T04:36:41.353Z,93.56
2023-02-22T04:37:41.362Z,93.87
2023-02-22T04:38:41.336Z,94.04
2023-02-22T04:39:41.366Z,94.04
2023-02-22T04:40:41.303Z,93.93
2023-02-22T04:41:41.284Z,93.52
2023-02-22T04:42:41.284Z,92.99
2023-02-22T04:43:41.247Z,92.58
2023-02-22T04:44:41.274Z,92.41
2023-02-22T04:45:41.225Z,92.52
2023-02-22T04:46:41.242Z,92.62
2023-02-22T04:47:41.211Z,92.97
2023-02-22T04:48:41.196Z,93.60
2023-02-22T04:49:41.201Z,94.02
2023-02-22T04:50:41.183Z,94.33
2023-02-22T04:51:41.132Z,94.54
2023-02-22T04:52:41.158Z,94.64
2023-02-22T04:53:41.134Z,94.70
2023-02-22T04:54:41.144Z,94.81
2023-02-22T04:55:41.095Z,94.92
2023-02-22T04:56:41.131Z,95.12
2023-02-22T04:57:41.081Z,95.33
2023-02-22T04:58:41.089Z,95.29
2023-02-22T04:59:41.046Z,95.18
2023-02-22T05:00:41.053Z,95.08
2023-02-22T05:01:41.038Z,95.08
2023-02-22T05:02:41.100Z,94.93
2023-02-22T05:03:40.989Z,94.51
2023-02-22T05:04:41.010Z,93.99
2023-02-22T05:05:40.969Z,93.58
2023-02-22T05:06:40.992Z,93.16
2023-02-22T05:07:40.953Z,92.89
2023-02-22T05:08:40.964Z,92.79
2023-02-22T05:09:40.921Z,92.89
2023-02-22T05:10:40.946Z,92.93
2023-02-22T05:11:40.910Z,93.14
2023-02-22T05:12:40.925Z,93.35
2023-02-22T05:13:40.888Z,93.56
2023-02-22T05:14:40.878Z,93.77
2023-02-22T05:15:40.836Z,94.02
2023-02-22T05:16:40.832Z,94.33
2023-02-22T05:17:40.815Z,94.54
2023-02-22T05:18:40.829Z,94.75
2023-02-22T05:19:40.815Z,94.96
2023-02-22T05:20:40.804Z,95.17
2023-02-22T05:21:40.753Z,95.27
2023-02-22T05:22:40.788Z,95.43
2023-02-22T05:23:40.723Z,95.64
2023-02-22T05:24:40.734Z,95.75
2023-02-22T05:25:40.734Z,95.81
2023-02-22T05:26:40.705Z,95.70
2023-02-22T05:27:40.694Z,95.81
2023-02-22T05:28:40.676Z,95.76
2023-02-22T05:29:40.733Z,95.87
2023-02-22T05:30:40.735Z,95.83
2023-02-22T05:31:40.874Z,95.72
2023-02-22T05:32:40.619Z,95.40
2023-02-22T05:33:40.610Z,95.20
2023-02-22T05:34:40.635Z,94.89
2023-02-22T05:35:40.602Z,94.57
2023-02-22T05:36:40.568Z,94.47
2023-02-22T05:37:40.568Z,94.32
2023-02-22T05:38:40.541Z,94.12
2023-02-22T05:39:40.564Z,93.39
2023-02-22T05:40:40.521Z,92.60
2023-02-22T05:41:40.528Z,91.97
2023-02-22T05:42:40.475Z,91.71
2023-02-22T05:43:40.489Z,91.71
2023-02-22T05:44:40.472Z,91.81
2023-02-22T05:45:40.489Z,92.16
2023-02-22T05:46:40.456Z,92.37
2023-02-22T05:47:40.459Z,92.58
2023-02-22T05:48:40.422Z,92.79
2023-02-22T05:49:40.420Z,92.79
2023-02-22T05:50:40.384Z,92.89
2023-02-22T05:51:40.420Z,93.10
2023-02-22T05:52:40.361Z,93.41
2023-02-22T05:53:40.391Z,93.83
2023-02-22T05:54:40.337Z,94.10
2023-02-22T05:55:40.337Z,94.31
2023-02-22T05:56:40.325Z,94.31
2023-02-22T05:57:40.318Z,93.99
2023-02-22T05:58:40.301Z,93.79
2023-02-22T05:59:40.290Z,93.58
2023-02-22T06:00:40.262Z,93.41
2023-02-22T06:01:40.315Z,93.20
2023-02-22T06:02:40.221Z,93.20
2023-02-22T06:03:40.256Z,93.35
2023-02-22T06:04:40.194Z,93.56
2023-02-22T06:05:40.254Z,93.87
2023-02-22T06:06:40.170Z,94.08
2023-02-22T06:07:40.231Z,94.39
2023-02-22T06:08:40.170Z,94.60
2023-02-22T06:09:40.175Z,94.70
2023-02-22T06:10:40.142Z,94.60
2023-02-22T06:11:40.152Z,94.49
2023-02-22T06:12:40.110Z,94.49
2023-02-22T06:13:40.125Z,94.70
2023-02-22T06:14:40.079Z,94.92
2023-02-22T06:15:40.088Z,95.12
2023-02-22T06:16:40.044Z,95.23
2023-02-22T06:17:40.055Z,95.12
2023-02-22T06:18:40.045Z,95.02
2023-02-22T06:19:40.033Z,94.70
2023-02-22T06:20:40.004Z,94.29
2023-02-22T06:21:39.994Z,94.43
2023-02-22T06:22:39.967Z,94.43
2023-02-22T06:23:39.979Z,94.64
2023-02-22T06:24:39.960Z,94.75
2023-02-22T06:25:39.946Z,94.92
2023-02-22T06:26:39.920Z,95.12
2023-02-22T06:27:39.930Z,95.33
2023-02-22T06:28:39.899Z,95.43
2023-02-22T06:29:39.938Z,95.39
2023-02-22T06:30:39.883Z,95.29
2023-02-22T06:31:39.962Z,95.18
2023-02-22T06:32:39.833Z,95.03
2023-02-22T06:33:39.849Z,94.82
2023-02-22T06:34:39.813Z,94.51
2023-02-22T06:35:39.852Z,93.79
2023-02-22T06:36:39.782Z,93.16
2023-02-22T06:37:39.805Z,92.89
2023-02-22T06:38:39.773Z,92.68
2023-02-22T06:39:39.770Z,92.62
2023-02-22T06:40:39.755Z,92.72
2023-02-22T06:41:39.746Z,93.04
2023-02-22T06:42:39.747Z,93.35
2023-02-22T06:43:39.735Z,93.56
2023-02-22T06:44:39.703Z,93.77
2023-02-22T06:45:39.751Z,94.08
2023-02-22T06:46:39.673Z,94.18
2023-02-22T06:47:39.690Z,94.39
2023-02-22T06:48:39.681Z,94.49
2023-02-22T06:49:39.666Z,94.60
2023-02-22T06:50:39.614Z,94.49
2023-02-22T06:51:39.671Z,94.49
2023-02-22T06:52:39.606Z,94.45
2023-02-22T06:53:39.604Z,94.45
2023-02-22T06:54:39.574Z,94.45
2023-02-22T06:55:39.565Z,94.35
2023-02-22T06:56:39.541Z,94.14
2023-02-22T06:57:39.542Z,94.24
2023-02-22T06:58:39.547Z,94.35
2023-02-22T06:59:39.536Z,94.56
2023-02-22T07:00:39.524Z,94.87
2023-02-22T07:01:39.485Z,94.98
2023-02-22T07:02:39.451Z,95.14
2023-02-22T07:03:39.518Z,95.25
2023-02-22T07:04:41.720Z,95.25
2023-02-22T07:05:39.451Z,95.09
2023-02-22T07:06:39.424Z,95.20
2023-02-22T07:07:39.442Z,95.20
2023-02-22T07:08:39.366Z,95.09
2023-02-22T07:09:39.397Z,94.95
2023-02-22T07:10:39.385Z,94.84
2023-02-22T07:11:39.365Z,94.74
2023-02-22T07:12:39.339Z,94.74
2023-02-22T07:13:39.339Z,94.84
2023-02-22T07:14:39.313Z,94.95
2023-02-22T07:15:39.326Z,94.95
2023-02-22T07:16:39.295Z,94.84
2023-02-22T07:17:39.275Z,94.64
2023-02-22T07:18:39.276Z,94.64
2023-02-22T07:19:39.267Z,94.84
2023-02-22T07:20:39.246Z,95.32
2023-02-22T07:21:39.239Z,95.53
2023-02-22T07:22:39.219Z,95.59
2023-02-22T07:23:39.245Z,95.69
2023-02-22T07:24:39.170Z,95.69
2023-02-22T07:25:39.183Z,95.90
2023-02-22T07:26:39.150Z,95.90
2023-02-22T07:27:39.168Z,95.28
2023-02-22T07:28:39.143Z,94.65
2023-02-22T07:29:39.147Z,94.38
2023-02-22T07:30:39.212Z,94.49
2023-02-22T07:31:39.139Z,94.70
2023-02-22T07:32:39.206Z,94.90
2023-02-22T07:33:39.062Z,95.11
2023-02-22T07:34:39.097Z,95.38
2023-02-22T07:35:39.044Z,95.59
2023-02-22T07:36:39.048Z,95.59
2023-02-22T07:37:39.004Z,95.59
2023-02-22T07:38:39.018Z,95.28
2023-02-22T07:39:39.004Z,95.11
2023-02-22T07:40:38.993Z,95.11
2023-02-22T07:41:38.991Z,95.11
2023-02-22T07:42:38.993Z,95.21
2023-02-22T07:43:38.935Z,95.21
2023-02-22T07:44:38.960Z,95.11
2023-02-22T07:45:38.939Z,95.01
2023-02-22T07:46:38.959Z,94.90
2023-02-22T07:47:38.878Z,94.90
2023-02-22T07:48:38.906Z,95.01
2023-02-22T07:49:38.856Z,95.32
2023-02-22T07:50:38.900Z,95.53
2023-02-22T07:51:38.884Z,95.63
2023-02-22T07:52:38.833Z,95.79
2023-02-22T07:53:38.813Z,95.90
2023-02-22T07:54:38.829Z,96.00
2023-02-22T07:55:38.767Z,96.27
2023-02-22T07:56:38.839Z,96.48
2023-02-22T07:57:38.746Z,96.64
2023-02-22T07:58:38.757Z,96.70
2023-02-22T07:59:38.725Z,96.70
2023-02-22T08:00:38.734Z,96.55
2023-02-22T08:01:38.714Z,96.45
2023-02-22T08:02:38.740Z,96.14
2023-02-22T08:03:38.736Z,95.99
2023-02-22T08:04:38.710Z,95.68
2023-02-22T08:05:38.645Z,95.32
2023-02-22T08:06:38.678Z,95.01
2023-02-22T08:07:38.646Z,94.60
2023-02-22T08:08:38.646Z,94.24
2023-02-22T08:09:38.625Z,93.83
2023-02-22T08:10:38.622Z,93.62
2023-02-22T08:11:38.601Z,93.27
2023-02-22T08:12:38.584Z,92.96
2023-02-22T08:13:38.549Z,92.65
2023-02-22T08:14:38.597Z,92.40
2023-02-22T08:15:38.553Z,92.09
2023-02-22T08:16:38.594Z,91.88
2023-02-22T08:17:38.483Z,91.78
2023-02-22T08:18:38.492Z,91.78
2023-02-22T08:19:38.468Z,91.57
2023-02-22T08:20:38.508Z,91.42
2023-02-22T08:21:38.434Z,91.42
2023-02-22T08:22:38.456Z,91.32
2023-02-22T08:23:38.413Z,91.07
2023-02-22T08:24:39.328Z,90.87
2023-02-22T08:25:38.389Z,90.77
2023-02-22T08:26:38.420Z,90.45
2023-02-22T08:27:38.384Z,90.45
2023-02-22T08:28:38.381Z,90.20
2023-02-22T08:29:38.344Z,89.89
2023-02-22T08:30:40.401Z,89.79
2023-02-22T08:31:38.338Z,89.79
2023-02-22T08:32:38.426Z,90.10
2023-02-22T08:33:38.317Z,89.95
2023-02-22T08:34:38.307Z,89.95
2023-02-22T08:35:38.276Z,89.44
2023-02-22T08:36:38.321Z,89.03
2023-02-22T08:37:38.235Z,88.71
2023-02-22T08:38:38.246Z,88.92
2023-02-22T08:39:38.199Z,89.13
2023-02-22T08:40:38.221Z,88.92
2023-02-22T08:41:38.189Z,88.51
2023-02-22T08:42:38.202Z,88.51
2023-02-22T08:43:38.183Z,88.68
2023-02-22T08:44:38.169Z,88.57
2023-02-22T08:45:38.171Z,88.57
2023-02-22T08:46:38.181Z,88.12
2023-02-22T08:47:38.219Z,87.92
2023-02-22T08:48:38.110Z,87.50
2023-02-22T08:49:38.080Z,86.98
2023-02-22T08:50:38.092Z,86.63
2023-02-22T08:51:38.078Z,86.63
2023-02-22T08:52:38.075Z,86.63
2023-02-22T08:53:38.028Z,86.29
2023-02-22T08:54:38.027Z,85.87
2023-02-22T08:55:38.015Z,85.46
2023-02-22T08:56:37.999Z,85.36
2023-02-22T08:57:37.974Z,84.94
2023-02-22T08:58:37.985Z,84.74
2023-02-22T08:59:37.952Z,84.94
2023-02-22T09:00:37.988Z,84.94
2023-02-22T09:01:38.289Z,85.15
2023-02-22T09:02:37.928Z,85.05
2023-02-22T09:03:38.014Z,85.11
2023-02-22T09:04:37.899Z,85.01
2023-02-22T09:05:38.049Z,84.80
2023-02-22T09:06:37.865Z,84.59
2023-02-22T09:07:37.866Z,84.70
2023-02-22T09:08:37.866Z,84.77
2023-02-22T09:09:37.832Z,84.66
2023-02-22T09:10:37.849Z,84.35
2023-02-22T09:11:37.769Z,84.14
2023-02-22T09:12:37.807Z,83.73
2023-02-22T09:13:37.801Z,84.14
2023-02-22T09:14:37.774Z,84.00
2023-02-22T09:15:37.779Z,84.00
2023-02-22T09:16:37.796Z,84.00
2023-02-22T09:17:37.711Z,83.70
2023-02-22T09:18:44.015Z,83.65
2023-02-22T09:19:37.698Z,83.97
2023-02-22T09:20:37.715Z,83.86
2023-02-22T09:21:37.644Z,83.11
2023-02-22T09:22:37.660Z,82.48
2023-02-22T09:23:37.635Z,82.28
2023-02-22T09:24:37.676Z,82.45
2023-02-22T09:25:37.604Z,82.24
2023-02-22T09:26:37.639Z,81.73
2023-02-22T09:27:37.583Z,81.59
2023-02-22T09:28:37.585Z,80.87
2023-02-22T09:29:37.582Z,80.87
2023-02-22T09:30:37.619Z,80.56
2023-02-22T09:31:37.555Z,80.15
2023-02-22T09:32:37.780Z,79.80
2023-02-22T09:33:37.485Z,79.29
2023-02-22T09:34:37.512Z,78.88
2023-02-22T09:35:37.518Z,78.67
2023-02-22T09:36:37.497Z,78.88
2023-02-22T09:37:37.440Z,79.05
2023-02-22T09:38:37.448Z,79.05
2023-02-22T09:39:37.641Z,79.01
2023-02-22T09:40:37.427Z,77.88
2023-02-22T09:41:37.401Z,77.23
2023-02-22T09:42:37.394Z,76.72
2023-02-22T09:43:37.387Z,76.41
2023-02-22T09:44:37.370Z,76.62
2023-02-22T09:45:37.411Z,76.78
2023-02-22T09:46:37.320Z,76.58
2023-02-22T09:47:37.383Z,75.31
2023-02-22T09:48:37.304Z,75.52
2023-02-22T09:49:37.327Z,74.46
2023-02-22T09:50:37.265Z,73.91
2023-02-22T09:51:37.276Z,73.88
2023-02-22T09:52:37.242Z,73.36
2023-02-22T09:53:37.245Z,74.11
2023-02-22T09:54:37.227Z,74.43
2023-02-22T09:55:37.234Z,74.53
2023-02-22T09:56:37.183Z,74.43
2023-02-22T09:57:37.193Z,74.87
2023-02-22T09:58:37.148Z,75.48
2023-02-22T09:59:37.200Z,76.10
2023-02-22T10:00:37.137Z,76.06
2023-02-22T10:01:37.152Z,75.35
2023-02-22T10:02:37.126Z,74.22
2023-02-22T10:03:37.139Z,74.11
2023-02-22T10:04:37.128Z,73.71
2023-02-22T10:05:37.117Z,73.71
2023-02-22T10:06:37.084Z,73.61
2023-02-22T10:07:37.062Z,73.61
2023-02-22T10:08:37.024Z,72.89
2023-02-22T10:09:37.043Z,72.99
2023-02-22T10:10:37.017Z,72.99
2023-02-22T10:11:37.040Z,72.78
2023-02-22T10:12:36.979Z,72.89
2023-02-22T10:13:36.986Z,72.69
2023-02-22T10:14:36.952Z,72.38
2023-02-22T10:15:36.976Z,71.56
2023-02-22T10:16:37.114Z,71.56
2023-02-22T10:17:36.935Z,72.38
2023-02-22T10:18:36.904Z,72.34
2023-02-22T10:19:36.934Z,71.32
2023-02-22T10:20:36.879Z,71.32
2023-02-22T10:21:36.904Z,71.94
2023-02-22T10:22:36.856Z,71.22
2023-02-22T10:23:36.887Z,71.32
2023-02-22T10:24:36.814Z,72.00
2023-02-22T10:25:36.861Z,70.78
2023-02-22T10:26:36.817Z,70.84
2023-02-22T10:27:36.802Z,70.81
2023-02-22T10:28:37.335Z,70.10
2023-02-22T10:29:36.769Z,69.28
2023-02-22T10:30:36.819Z,69.28
2023-02-22T10:31:36.793Z,69.52
2023-02-22T10:32:36.782Z,69.52
2023-02-22T10:33:36.761Z,69.82
2023-02-22T10:34:36.679Z,69.52
2023-02-22T10:35:36.705Z,69.45
2023-02-22T10:36:36.718Z,69.85
2023-02-22T10:37:36.717Z,70.26
2023-02-22T10:38:36.643Z,70.57
2023-02-22T10:39:36.725Z,70.06
2023-02-22T10:40:36.624Z,70.47
2023-02-22T10:41:36.621Z,69.99
2023-02-22T10:42:36.622Z,69.99
2023-02-22T10:43:36.597Z,70.23
2023-02-22T10:44:36.573Z,70.74
2023-02-22T10:45:36.600Z,71.15
2023-02-22T10:46:36.524Z,71.77
2023-02-22T10:47:36.549Z,71.97
2023-02-22T10:48:36.504Z,71.94
2023-02-22T10:49:36.543Z,71.22
2023-02-22T10:50:36.491Z,70.88
2023-02-22T10:51:36.565Z,70.88
2023-02-22T10:52:36.463Z,70.57
2023-02-22T10:53:36.664Z,70.26
2023-02-22T10:54:36.446Z,69.85
2023-02-22T10:55:36.502Z,69.65
2023-02-22T10:56:36.484Z,69.52
2023-02-22T10:57:36.424Z,69.31
2023-02-22T10:58:36.400Z,69.31
2023-02-22T10:59:36.421Z,68.90
2023-02-22T11:00:36.395Z,68.90
2023-02-22T11:01:36.424Z,69.21
2023-02-22T11:02:36.325Z,69.21
2023-02-22T11:03:36.330Z,69.11
2023-02-22T11:04:36.320Z,68.90
2023-02-22T11:05:36.352Z,69.01
2023-02-22T11:06:36.267Z,68.60
2023-02-22T11:07:36.292Z,68.29
2023-02-22T11:08:36.252Z,68.70
2023-02-22T11:09:36.261Z,69.21
2023-02-22T11:10:36.259Z,69.82
2023-02-22T11:11:36.248Z,69.79
2023-02-22T11:12:36.188Z,68.87
2023-02-22T11:13:36.219Z,68.26
2023-02-22T11:14:36.189Z,68.57
2023-02-22T11:15:36.221Z,67.71
2023-02-22T11:16:36.274Z,67.41
2023-02-22T11:17:36.146Z,67.07
2023-02-22T11:18:36.168Z,66.86
2023-02-22T11:19:36.128Z,67.38
2023-02-22T11:20:36.133Z,67.35
2023-02-22T11:21:36.112Z,66.53
2023-02-22T11:22:36.073Z,66.53
2023-02-22T11:23:36.086Z,66.46
2023-02-22T11:24:48.400Z,66.86
2023-02-22T11:25:36.074Z,67.27
2023-02-22T11:26:35.999Z,67.38
2023-02-22T11:27:36.040Z,68.30
2023-02-22T11:28:35.997Z,67.99
2023-02-22T11:29:35.985Z,67.99
2023-02-22T11:30:36.125Z,67.38
2023-02-22T11:31:36.063Z,67.48
2023-02-22T11:32:35.918Z,67.24
2023-02-22T11:33:35.958Z,68.37
2023-02-22T11:34:35.911Z,68.16
2023-02-22T11:35:35.909Z,68.06
2023-02-22T11:36:35.898Z,67.76
2023-02-22T11:37:35.878Z,66.74
2023-02-22T11:38:35.851Z,66.63
2023-02-22T11:39:35.920Z,66.63
2023-02-22T11:40:35.837Z,66.94
2023-02-22T11:41:35.847Z,67.55
2023-02-22T11:42:35.791Z,67.65
2023-02-22T11:43:35.800Z,67.55
2023-02-22T11:44:35.774Z,67.85
2023-02-22T11:45:36.565Z,68.37
2023-02-22T11:46:35.844Z,67.96
2023-02-22T11:47:35.742Z,68.06
2023-02-22T11:48:35.708Z,67.96
2023-02-22T11:49:35.740Z,68.09
2023-02-22T11:50:35.686Z,68.91
2023-02-22T11:51:35.712Z,68.67
2023-02-22T11:52:35.675Z,68.67
2023-02-22T11:53:35.663Z,68.47
2023-02-22T11:54:35.646Z,68.40
2023-02-22T11:55:42.778Z,68.91
2023-02-22T11:56:38.114Z,68.50
2023-02-22T11:57:35.629Z,69.01
2023-02-22T11:58:35.573Z,69.01
2023-02-22T11:59:35.616Z,68.80
2023-02-22T12:00:35.560Z,69.29
2023-02-22T12:01:35.598Z,69.29
2023-02-22T12:02:35.520Z,67.96
2023-02-22T12:03:35.568Z,67.32
2023-02-22T12:04:35.609Z,66.91
2023-02-22T12:05:35.521Z,67.08
2023-02-22T12:06:35.501Z,66.67
2023-02-22T12:07:35.475Z,66.47
2023-02-22T12:08:35.438Z,66.74
2023-02-22T12:09:35.458Z,66.74
2023-02-22T12:10:35.483Z,66.94
2023-02-22T12:11:35.432Z,67.35
2023-02-22T12:12:35.433Z,67.55
2023-02-22T12:13:35.399Z,67.15
2023-02-22T12:14:35.365Z,66.20
2023-02-22T12:15:35.432Z,66.91
2023-02-22T12:16:36.177Z,66.54
2023-02-22T12:17:35.373Z,66.64
2023-02-22T12:18:35.301Z,67.05
2023-02-22T12:19:35.336Z,66.94
2023-02-22T12:20:35.311Z,66.74
2023-02-22T12:21:35.323Z,66.44
2023-02-22T12:22:35.269Z,66.13
2023-02-22T12:23:35.277Z,66.13
2023-02-22T12:24:35.240Z,66.33
2023-02-22T12:25:35.271Z,66.47
2023-02-22T12:26:35.240Z,66.85
2023-02-22T12:27:35.218Z,66.74
2023-02-22T12:28:35.220Z,66.54
2023-02-22T12:29:35.196Z,66.33
2023-02-22T12:30:35.218Z,66.44
2023-02-22T12:31:35.277Z,65.59
2023-02-22T12:32:35.229Z,66.30
2023-02-22T12:33:35.201Z,66.30
2023-02-22T12:34:35.134Z,66.82
2023-02-22T12:35:35.108Z,65.39
2023-02-22T12:36:35.113Z,65.77
2023-02-22T12:37:35.087Z,65.25
2023-02-22T12:38:35.069Z,65.66
2023-02-22T12:39:47.125Z,65.66
2023-02-22T12:40:35.030Z,65.56
2023-02-22T12:41:35.046Z,65.56
2023-02-22T12:42:35.006Z,65.25
2023-02-22T12:43:35.013Z,65.86
2023-02-22T12:44:35.001Z,65.77
2023-02-22T12:45:34.994Z,66.17
2023-02-22T12:46:34.983Z,65.63
2023-02-22T12:47:34.963Z,65.83
2023-02-22T12:48:34.926Z,65.83
2023-02-22T12:49:34.976Z,65.63
2023-02-22T12:50:34.931Z,65.22
2023-02-22T12:51:34.914Z,66.24
2023-02-22T12:52:34.877Z,65.53